Time;durP1;ratioP1;P1;durP2;ratioP2;P2;SDS_P1;SDS_P2;PMS_P1;PMS_P2;Temp;Humidity;BMP_temperature;BMP_pressure;BME280_temperature;BME280_humidity;BME280_pressure;Samples;Min_cycle;Max_cycle;Signal;HPM_P1;HPM_P2
2022/11/05 00:10:00;;;;;;;11.30;8.15;;;;;;;;;;4913426;29;20107;-60
2022/11/05 00:17:57;;;;;;;9.60;7.82;;;;;;;;;;4916199;29;20052;-59
2022/11/05 00:20:23;;;;;;;13.77;8.35;;;;;;;;;;4916031;29;20040;-60
2022/11/05 00:25:35;;;;;;;9.82;7.38;;;;;;;;;;4916155;29;20075;-58
2022/11/05 00:28:02;;;;;;;10.07;7.43;;;;;;;;;;4916141;29;20047;-60
2022/11/05 00:30:29;;;;;;;10.98;7.80;;;;;;;;;;4916115;29;20044;-59
2022/11/05 00:32:59;;;;;;;10.13;7.30;;;;;;;;;;4914361;29;20497;-59
2022/11/05 00:35:25;;;;;;;9.68;7.60;;;;;;;;;;4930411;29;20140;-61
2022/11/05 00:37:52;;;;;;;12.13;7.88;;;;;;;;;;4916009;29;20048;-58
2022/11/05 00:40:19;;;;;;;11.07;7.63;;;;;;;;;;4914436;29;20056;-59
2022/11/05 00:45:30;;;;;;;10.52;7.95;;;;;;;;;;4919479;29;20040;-59
2022/11/05 00:50:42;;;;;;;10.90;7.50;;;;;;;;;;4932918;29;20060;-61
2022/11/05 00:53:08;;;;;;;10.82;7.72;;;;;;;;;;4918352;29;20055;-59
2022/11/05 00:55:40;;;;;;;11.45;7.85;;;;;;;;;;4918197;29;20052;-59
2022/11/05 00:58:08;;;;;;;9.77;7.72;;;;;;;;;;4933389;29;20048;-61
2022/11/05 01:00:35;;;;;;;12.07;8.52;;;;;;;;;;4933373;29;20048;-61
2022/11/05 01:03:04;;;;;;;12.45;7.97;;;;;;;;;;4918510;29;20044;-59
2022/11/05 01:05:31;;;;;;;11.27;8.20;;;;;;;;;;4922742;29;20104;-60
2022/11/05 01:07:58;;;;;;;11.48;8.20;;;;;;;;;;4921060;29;20048;-59
2022/11/05 01:10:25;;;;;;;13.93;8.00;;;;;;;;;;4919994;29;20059;-60
2022/11/05 01:12:51;;;;;;;11.68;7.63;;;;;;;;;;4935024;29;20044;-60
2022/11/05 01:15:18;;;;;;;10.65;8.02;;;;;;;;;;4920246;29;20048;-58
2022/11/05 01:17:45;;;;;;;16.52;8.48;;;;;;;;;;4919198;29;20063;-58
2022/11/05 01:20:11;;;;;;;9.23;7.80;;;;;;;;;;4919264;29;20459;-60
2022/11/05 01:22:38;;;;;;;9.48;7.55;;;;;;;;;;4918661;29;20043;-57
2022/11/05 01:25:06;;;;;;;8.13;7.28;;;;;;;;;;4919051;29;20044;-58
2022/11/05 01:27:32;;;;;;;9.23;6.80;;;;;;;;;;4919113;29;20044;-59
2022/11/05 01:29:59;;;;;;;12.90;7.72;;;;;;;;;;4919070;29;20048;-60
2022/11/05 01:32:25;;;;;;;12.45;7.65;;;;;;;;;;4918349;29;20111;-60
2022/11/05 01:34:52;;;;;;;12.23;7.65;;;;;;;;;;4919018;29;20452;-60
2022/11/05 01:37:18;;;;;;;13.88;8.05;;;;;;;;;;4919168;29;20454;-60
2022/11/05 01:39:44;;;;;;;9.98;7.57;;;;;;;;;;4918970;29;20468;-60
2022/11/05 01:42:18;;;;;;;10.43;7.63;;;;;;;;;;4918320;29;20044;-59
2022/11/05 01:44:51;;;;;;;8.98;7.13;;;;;;;;;;4917618;29;20056;-60
2022/11/05 01:47:36;;;;;;;9.70;7.20;;;;;;;;;;4919227;29;20059;-62
2022/11/05 01:50:05;;;;;;;12.75;7.45;;;;;;;;;;4919562;29;20044;-60
2022/11/05 01:52:33;;;;;;;9.27;6.82;;;;;;;;;;4933429;29;20512;-61
2022/11/05 01:55:00;;;;;;;8.00;5.93;;;;;;;;;;4919264;29;20048;-60
2022/11/05 01:57:27;;;;;;;7.68;5.40;;;;;;;;;;4919221;29;20056;-59
2022/11/05 01:59:56;;;;;;;9.68;5.40;;;;;;;;;;4919341;29;20048;-61
2022/11/05 02:02:23;;;;;;;6.85;5.15;;;;;;;;;;4933226;29;20547;-61
2022/11/05 02:04:53;;;;;;;6.75;4.75;;;;;;;;;;4919523;29;20051;-61
2022/11/05 02:07:20;;;;;;;6.20;5.07;;;;;;;;;;4919022;29;20055;-62
2022/11/05 02:09:55;;;;;;;7.20;4.13;;;;;;;;;;4918650;29;20052;-62
2022/11/05 02:12:22;;;;;;;6.40;4.68;;;;;;;;;;4918807;29;20040;-62
2022/11/05 02:14:48;;;;;;;5.80;3.78;;;;;;;;;;4916974;29;20036;-62
2022/11/05 02:17:18;;;;;;;6.60;4.20;;;;;;;;;;4933345;29;20052;-63
2022/11/05 02:19:47;;;;;;;4.63;3.80;;;;;;;;;;4933273;29;20044;-62
2022/11/05 02:22:23;;;;;;;5.13;3.97;;;;;;;;;;4932312;29;20095;-63
2022/11/05 02:24:49;;;;;;;7.07;3.95;;;;;;;;;;4918203;29;20516;-61
2022/11/05 02:27:34;;;;;;;4.38;3.42;;;;;;;;;;4918407;29;20041;-62
2022/11/05 02:30:03;;;;;;;5.15;3.53;;;;;;;;;;4918070;29;20052;-62
2022/11/05 02:32:44;;;;;;;4.30;3.38;;;;;;;;;;4917458;29;20414;-61
2022/11/05 02:35:11;;;;;;;4.35;3.60;;;;;;;;;;4917952;29;20497;-62
2022/11/05 02:37:39;;;;;;;5.60;3.17;;;;;;;;;;4917812;29;20067;-62
2022/11/05 02:40:18;;;;;;;4.78;4.30;;;;;;;;;;4917723;29;20040;-62
2022/11/05 02:42:47;;;;;;;3.45;2.65;;;;;;;;;;4917292;29;20120;-62
2022/11/05 02:45:13;;;;;;;3.72;2.65;;;;;;;;;;4932187;29;20107;-62
2022/11/05 02:47:43;;;;;;;3.38;2.50;;;;;;;;;;4917864;29;20087;-62
2022/11/05 02:50:17;;;;;;;3.00;2.40;;;;;;;;;;4917752;29;20497;-62
2022/11/05 02:52:58;;;;;;;2.40;1.85;;;;;;;;;;4917081;29;20569;-62
2022/11/05 02:55:24;;;;;;;2.10;1.90;;;;;;;;;;4932349;29;20048;-62
2022/11/05 02:57:50;;;;;;;3.28;2.33;;;;;;;;;;4917594;29;20557;-61
2022/11/05 03:00:36;;;;;;;3.40;2.30;;;;;;;;;;4917460;29;20092;-62
2022/11/05 03:03:04;;;;;;;4.40;2.30;;;;;;;;;;4917053;29;20036;-62
2022/11/05 03:05:37;;;;;;;2.20;1.70;;;;;;;;;;4917456;29;20102;-62
2022/11/05 03:08:07;;;;;;;2.83;2.17;;;;;;;;;;4917164;29;20044;-62
2022/11/05 03:10:36;;;;;;;2.72;2.13;;;;;;;;;;4917464;29;20048;-62
2022/11/05 03:13:06;;;;;;;3.05;2.08;;;;;;;;;;4916890;29;20104;-62
2022/11/05 03:15:50;;;;;;;2.55;2.22;;;;;;;;;;4917435;29;20044;-62
2022/11/05 03:18:25;;;;;;;3.35;2.30;;;;;;;;;;4917267;29;20044;-62
2022/11/05 03:20:52;;;;;;;2.30;1.90;;;;;;;;;;4917225;29;20052;-62
2022/11/05 03:23:44;;;;;;;3.58;2.40;;;;;;;;;;4916573;29;20037;-62
2022/11/05 03:26:11;;;;;;;3.17;1.70;;;;;;;;;;4916161;29;20500;-62
2022/11/05 03:28:39;;;;;;;2.95;2.20;;;;;;;;;;4916996;29;20386;-62
2022/11/05 03:31:06;;;;;;;3.08;2.20;;;;;;;;;;4916845;29;20044;-62
2022/11/05 03:33:35;;;;;;;4.53;2.67;;;;;;;;;;4916470;29;20493;-62
2022/11/05 03:36:04;;;;;;;4.00;2.30;;;;;;;;;;4917182;29;20492;-62
2022/11/05 03:38:33;;;;;;;4.28;2.83;;;;;;;;;;4916758;29;20104;-62
2022/11/05 03:41:02;;;;;;;2.58;2.13;;;;;;;;;;4916681;29;20074;-62
2022/11/05 03:43:29;;;;;;;3.42;2.45;;;;;;;;;;4916302;29;20552;-62
2022/11/05 03:45:58;;;;;;;5.00;2.50;;;;;;;;;;4916717;29;20489;-62
2022/11/05 03:48:26;;;;;;;3.60;2.45;;;;;;;;;;4916713;29;20040;-62
2022/11/05 03:50:52;;;;;;;3.60;2.58;;;;;;;;;;4916850;29;20054;-62
2022/11/05 03:53:24;;;;;;;2.72;2.00;;;;;;;;;;4916094;29;20051;-62
2022/11/05 03:56:01;;;;;;;2.67;2.40;;;;;;;;;;4916554;29;20052;-62
2022/11/05 03:58:28;;;;;;;4.47;3.40;;;;;;;;;;4916451;29;20052;-62
2022/11/05 04:00:57;;;;;;;4.30;2.72;;;;;;;;;;4916508;29;20051;-62
2022/11/05 04:03:24;;;;;;;3.85;2.60;;;;;;;;;;4916058;29;20092;-62
2022/11/05 04:14:14;;;;;;;2.83;2.25;;;;;;;;;;4930839;29;20044;-61
2022/11/05 04:25:07;;;;;;;7.00;4.07;;;;;;;;;;4913765;29;20048;-61
2022/11/05 04:27:34;;;;;;;4.25;3.25;;;;;;;;;;4914835;29;20048;-61
2022/11/05 04:30:19;;;;;;;3.65;2.85;;;;;;;;;;4914909;29;20048;-61
2022/11/05 04:33:05;;;;;;;4.00;3.08;;;;;;;;;;4915589;29;20506;-61
2022/11/05 04:35:31;;;;;;;3.22;2.92;;;;;;;;;;4916453;29;20047;-61
2022/11/05 04:37:58;;;;;;;6.68;3.53;;;;;;;;;;4915473;29;20261;-61
2022/11/05 04:40:25;;;;;;;4.68;3.53;;;;;;;;;;4916037;29;20051;-62
2022/11/05 04:42:52;;;;;;;6.10;3.35;;;;;;;;;;4929913;29;20040;-61
2022/11/05 04:45:18;;;;;;;4.38;2.83;;;;;;;;;;4914651;29;20044;-61
2022/11/05 04:47:45;;;;;;;7.53;4.00;;;;;;;;;;4915830;29;20048;-61
2022/11/05 04:50:12;;;;;;;6.78;4.10;;;;;;;;;;4915867;29;20040;-61
2022/11/05 04:52:39;;;;;;;5.93;3.05;;;;;;;;;;4915472;29;20116;-61
2022/11/05 04:55:05;;;;;;;5.35;3.00;;;;;;;;;;4916172;29;20048;-61
2022/11/05 04:57:32;;;;;;;6.32;2.95;;;;;;;;;;4915843;29;20040;-61
2022/11/05 04:59:58;;;;;;;4.93;3.25;;;;;;;;;;4930474;29;20513;-61
2022/11/05 05:02:25;;;;;;;6.05;3.70;;;;;;;;;;5314661;23;20544;-63
2022/11/05 05:04:51;;;;;;;4.18;3.13;;;;;;;;;;4896957;29;20513;-63
2022/11/05 05:07:18;;;;;;;3.95;2.97;;;;;;;;;;4896831;29;20493;-62
2022/11/05 05:09:44;;;;;;;4.55;3.53;;;;;;;;;;4896709;29;20489;-63
2022/11/05 05:12:11;;;;;;;4.72;3.28;;;;;;;;;;4894955;29;20084;-63
2022/11/05 05:14:37;;;;;;;4.65;3.42;;;;;;;;;;4897034;29;20080;-63
2022/11/05 05:17:03;;;;;;;6.30;3.50;;;;;;;;;;4896889;29;20100;-62
2022/11/05 05:21:37;;;;;;;6.90;3.35;;;;;;;;;;4896860;29;20045;-62
2022/11/05 05:22:16;;;;;;;6.18;3.50;;;;;;;;;;4910642;29;20048;-63
2022/11/05 05:24:43;;;;;;;6.15;2.92;;;;;;;;;;4896959;29;20112;-63
2022/11/05 05:27:16;;;;;;;3.45;3.05;;;;;;;;;;4897287;29;20049;-62
2022/11/05 05:29:43;;;;;;;6.28;4.10;;;;;;;;;;4896825;29;20056;-62
2022/11/05 05:32:09;;;;;;;6.05;4.90;;;;;;;;;;4896097;29;20758;-63
2022/11/05 05:34:35;;;;;;;4.07;3.38;;;;;;;;;;4896391;29;20494;-63
2022/11/05 05:37:02;;;;;;;4.40;3.22;;;;;;;;;;4895401;29;20040;-62
2022/11/05 05:39:28;;;;;;;4.68;3.42;;;;;;;;;;4896497;29;20073;-63
2022/11/05 05:41:55;;;;;;;4.28;3.28;;;;;;;;;;4894520;29;20056;-62
2022/11/05 05:44:21;;;;;;;4.35;2.67;;;;;;;;;;4896729;29;20045;-62
2022/11/05 05:46:47;;;;;;;6.82;2.72;;;;;;;;;;4896728;29;20417;-62
2022/11/05 05:49:14;;;;;;;4.63;2.63;;;;;;;;;;4896581;29;20044;-62
2022/11/05 05:51:40;;;;;;;4.85;2.75;;;;;;;;;;4899474;29;20072;-62
2022/11/05 05:54:07;;;;;;;5.22;2.85;;;;;;;;;;4900080;29;20057;-62
2022/11/05 05:56:33;;;;;;;3.92;2.97;;;;;;;;;;4899289;29;20096;-62
2022/11/05 05:59:00;;;;;;;4.50;3.22;;;;;;;;;;4900271;29;20044;-62
2022/11/05 06:01:26;;;;;;;3.65;2.72;;;;;;;;;;4899786;29;20447;-62
2022/11/05 06:03:52;;;;;;;5.28;3.10;;;;;;;;;;4897860;29;20051;-62
2022/11/05 06:06:19;;;;;;;3.97;3.13;;;;;;;;;;4899760;29;20052;-61
2022/11/05 06:08:46;;;;;;;6.25;4.47;;;;;;;;;;4898226;29;20498;-62
2022/11/05 06:11:13;;;;;;;5.20;3.78;;;;;;;;;;4899479;29;20048;-62
2022/11/05 06:13:39;;;;;;;6.55;3.45;;;;;;;;;;4898862;29;20063;-62
2022/11/05 06:16:06;;;;;;;7.93;3.53;;;;;;;;;;4898275;29;20045;-62
2022/11/05 06:18:34;;;;;;;5.68;3.15;;;;;;;;;;4899268;29;20076;-62
2022/11/05 06:21:00;;;;;;;4.47;2.90;;;;;;;;;;4899346;29;20092;-61
2022/11/05 06:23:28;;;;;;;4.32;2.83;;;;;;;;;;4897489;29;20065;-61
2022/11/05 06:25:57;;;;;;;5.65;3.15;;;;;;;;;;4899212;29;20132;-61
2022/11/05 06:28:24;;;;;;;6.32;3.83;;;;;;;;;;4899174;29;20040;-60
2022/11/05 06:30:50;;;;;;;3.38;3.08;;;;;;;;;;4899102;29;20097;-61
2022/11/05 06:33:17;;;;;;;5.13;3.22;;;;;;;;;;4898570;29;20085;-60
2022/11/05 06:35:43;;;;;;;4.15;3.00;;;;;;;;;;4899147;29;20048;-61
2022/11/05 06:38:09;;;;;;;3.67;2.60;;;;;;;;;;4899323;29;20044;-61
2022/11/05 06:40:36;;;;;;;5.75;3.08;;;;;;;;;;4899098;29;20113;-61
2022/11/05 06:43:02;;;;;;;6.45;3.30;;;;;;;;;;4898319;29;20063;-61
2022/11/05 06:45:29;;;;;;;4.22;2.88;;;;;;;;;;4898860;29;20077;-61
2022/11/05 06:47:56;;;;;;;6.20;2.97;;;;;;;;;;4898841;29;20040;-60
2022/11/05 06:50:23;;;;;;;3.22;2.88;;;;;;;;;;4897819;29;20533;-62
2022/11/05 06:53:00;;;;;;;3.40;3.08;;;;;;;;;;4898506;29;20208;-61
2022/11/05 06:55:27;;;;;;;3.38;2.92;;;;;;;;;;4898749;29;20053;-62
2022/11/05 06:57:54;;;;;;;4.88;3.45;;;;;;;;;;4898749;29;20084;-61
2022/11/05 07:00:21;;;;;;;4.28;3.47;;;;;;;;;;4897165;29;20053;-61
2022/11/05 07:02:47;;;;;;;5.55;3.38;;;;;;;;;;4897733;29;20040;-61
2022/11/05 07:05:14;;;;;;;5.88;3.75;;;;;;;;;;4897353;29;20080;-63
2022/11/05 07:07:41;;;;;;;7.32;3.38;;;;;;;;;;4898822;29;20130;-61
2022/11/05 07:10:10;;;;;;;6.40;3.70;;;;;;;;;;4898917;29;20044;-62
2022/11/05 07:12:36;;;;;;;6.35;3.60;;;;;;;;;;4897720;29;20096;-62
2022/11/05 07:15:03;;;;;;;4.22;3.50;;;;;;;;;;4898342;29;20049;-62
2022/11/05 07:17:29;;;;;;;6.95;4.22;;;;;;;;;;4898296;29;20125;-62
2022/11/05 07:19:56;;;;;;;5.93;4.07;;;;;;;;;;4898385;29;20040;-62
2022/11/05 07:22:22;;;;;;;5.90;4.15;;;;;;;;;;4896271;29;20077;-62
2022/11/05 07:24:49;;;;;;;6.60;4.03;;;;;;;;;;4898141;29;20387;-62
2022/11/05 07:27:16;;;;;;;6.95;3.83;;;;;;;;;;4898535;29;20100;-62
2022/11/05 07:29:42;;;;;;;6.25;3.92;;;;;;;;;;4896875;29;20083;-62
2022/11/05 07:32:09;;;;;;;5.05;3.60;;;;;;;;;;4896191;29;20056;-62
2022/11/05 07:34:35;;;;;;;5.70;3.75;;;;;;;;;;4898338;29;20406;-62
2022/11/05 07:37:01;;;;;;;5.20;3.67;;;;;;;;;;4898311;29;20097;-62
2022/11/05 07:39:28;;;;;;;7.47;4.10;;;;;;;;;;4897950;29;20386;-62
2022/11/05 07:41:54;;;;;;;6.60;4.00;;;;;;;;;;4897055;29;20425;-62
2022/11/05 07:44:20;;;;;;;5.88;3.88;;;;;;;;;;4897799;29;20096;-62
2022/11/05 07:46:47;;;;;;;4.57;3.10;;;;;;;;;;4897722;29;20096;-62
2022/11/05 07:49:13;;;;;;;4.18;3.30;;;;;;;;;;4896481;29;20386;-62
2022/11/05 07:51:40;;;;;;;6.30;3.40;;;;;;;;;;4896108;29;20063;-62
2022/11/05 07:54:06;;;;;;;7.15;3.95;;;;;;;;;;4896297;29;20561;-62
2022/11/05 07:56:32;;;;;;;9.07;4.35;;;;;;;;;;4896318;29;20085;-62
2022/11/05 07:58:59;;;;;;;6.40;3.90;;;;;;;;;;4896492;29;20119;-62
2022/11/05 08:01:25;;;;;;;6.03;4.00;;;;;;;;;;4897076;29;20064;-62
2022/11/05 08:03:52;;;;;;;4.80;4.03;;;;;;;;;;4895740;29;20076;-62
2022/11/05 08:06:18;;;;;;;7.90;4.55;;;;;;;;;;4896328;29;20498;-62
2022/11/05 08:08:44;;;;;;;6.65;4.47;;;;;;;;;;4897490;29;20524;-62
2022/11/05 08:11:11;;;;;;;6.72;4.43;;;;;;;;;;4896240;29;20045;-62
2022/11/05 08:13:37;;;;;;;6.50;4.40;;;;;;;;;;4896691;29;20446;-62
2022/11/05 08:16:04;;;;;;;6.07;4.32;;;;;;;;;;4897235;29;20040;-62
2022/11/05 08:18:31;;;;;;;8.63;4.28;;;;;;;;;;4895983;29;20104;-62
2022/11/05 08:20:58;;;;;;;7.53;4.50;;;;;;;;;;4897536;29;20037;-62
2022/11/05 08:23:25;;;;;;;8.70;4.20;;;;;;;;;;4896425;29;20494;-62
2022/11/05 08:25:51;;;;;;;6.47;4.13;;;;;;;;;;4895915;29;20059;-62
2022/11/05 08:28:21;;;;;;;6.68;3.92;;;;;;;;;;4896063;29;20053;-63
2022/11/05 08:30:51;;;;;;;10.10;4.25;;;;;;;;;;4897434;29;20040;-62
2022/11/05 08:33:19;;;;;;;9.18;5.00;;;;;;;;;;4879050;29;20095;-63
2022/11/05 08:35:46;;;;;;;7.80;4.05;;;;;;;;;;4859931;29;20117;-63
2022/11/05 08:38:14;;;;;;;9.50;4.43;;;;;;;;;;4859915;29;20057;-62
2022/11/05 08:40:41;;;;;;;8.30;4.57;;;;;;;;;;4859903;29;20152;-63
2022/11/05 08:43:09;;;;;;;6.43;4.13;;;;;;;;;;4858959;29;20097;-63
2022/11/05 08:45:36;;;;;;;8.45;4.35;;;;;;;;;;4859964;29;20475;-63
2022/11/05 08:48:08;;;;;;;6.80;3.78;;;;;;;;;;4859781;29;20041;-63
2022/11/05 08:50:35;;;;;;;5.38;3.58;;;;;;;;;;4858530;29;20114;-63
2022/11/05 08:53:03;;;;;;;5.63;3.80;;;;;;;;;;4858975;29;20510;-62
2022/11/05 08:55:29;;;;;;;9.65;3.90;;;;;;;;;;4859556;29;20499;-63
2022/11/05 08:58:00;;;;;;;7.82;4.13;;;;;;;;;;4859638;29;20049;-62
2022/11/05 09:00:28;;;;;;;6.22;4.00;;;;;;;;;;4859550;29;20098;-63
2022/11/05 09:02:57;;;;;;;7.32;3.22;;;;;;;;;;4857445;29;20050;-63
2022/11/05 09:05:23;;;;;;;8.80;5.57;;;;;;;;;;4859527;29;20053;-63
2022/11/05 09:07:50;;;;;;;11.38;5.30;;;;;;;;;;4859449;29;20128;-62
2022/11/05 09:10:21;;;;;;;11.75;5.55;;;;;;;;;;4859585;29;20129;-63
2022/11/05 09:12:48;;;;;;;13.18;6.57;;;;;;;;;;4859045;29;20463;-62
2022/11/05 09:15:14;;;;;;;15.50;6.90;;;;;;;;;;4859758;29;20081;-62
2022/11/05 09:17:40;;;;;;;11.82;5.88;;;;;;;;;;4859423;29;20082;-63
2022/11/05 09:20:09;;;;;;;12.15;6.45;;;;;;;;;;4859583;29;20046;-63
2022/11/05 09:22:35;;;;;;;16.17;6.50;;;;;;;;;;4872922;29;20045;-63
2022/11/05 09:25:08;;;;;;;10.77;5.93;;;;;;;;;;4862091;29;20050;-63
2022/11/05 09:27:35;;;;;;;14.98;7.60;;;;;;;;;;4863277;29;20077;-62
2022/11/05 09:30:01;;;;;;;12.00;6.03;;;;;;;;;;4863054;29;20046;-62
2022/11/05 09:32:29;;;;;;;10.98;5.65;;;;;;;;;;4862472;29;20098;-63
2022/11/05 09:34:55;;;;;;;10.45;6.05;;;;;;;;;;4863109;29;20053;-63
2022/11/05 09:37:22;;;;;;;7.82;4.65;;;;;;;;;;4877254;29;20045;-63
2022/11/05 09:39:48;;;;;;;6.90;5.32;;;;;;;;;;4877212;29;20089;-63
2022/11/05 09:42:15;;;;;;;8.13;4.40;;;;;;;;;;4862268;29;20085;-63
2022/11/05 09:44:44;;;;;;;9.68;4.80;;;;;;;;;;4862737;29;20045;-63
2022/11/05 09:47:13;;;;;;;5.72;4.65;;;;;;;;;;4876816;29;20088;-61
2022/11/05 09:49:49;;;;;;;6.47;4.45;;;;;;;;;;4862551;29;20567;-63
2022/11/05 09:52:25;;;;;;;8.35;4.40;;;;;;;;;;4862065;29;20097;-63
2022/11/05 09:54:53;;;;;;;9.73;4.07;;;;;;;;;;4876717;29;20045;-63
2022/11/05 09:57:22;;;;;;;7.28;4.40;;;;;;;;;;4862336;29;20054;-63
2022/11/05 09:59:53;;;;;;;8.13;4.50;;;;;;;;;;4862491;29;20050;-61
2022/11/05 10:02:31;;;;;;;8.50;4.88;;;;;;;;;;4861488;29;20102;-62
2022/11/05 10:04:59;;;;;;;6.55;3.70;;;;;;;;;;4862474;29;20046;-62
2022/11/05 10:07:46;;;;;;;4.90;3.20;;;;;;;;;;4862377;29;20112;-62
2022/11/05 10:10:25;;;;;;;5.10;3.65;;;;;;;;;;4862205;29;20045;-62
2022/11/05 10:12:53;;;;;;;7.80;4.00;;;;;;;;;;4875875;29;20102;-62
2022/11/05 10:15:36;;;;;;;6.97;4.50;;;;;;;;;;4862211;29;20053;-62
2022/11/05 10:18:08;;;;;;;6.10;3.80;;;;;;;;;;4862120;29;20056;-62
2022/11/05 10:20:36;;;;;;;6.03;3.88;;;;;;;;;;4862220;29;20503;-64
2022/11/05 10:23:16;;;;;;;8.50;4.53;;;;;;;;;;4875475;29;20546;-62
2022/11/05 10:25:45;;;;;;;10.18;4.13;;;;;;;;;;4862181;29;20456;-62
2022/11/05 10:28:22;;;;;;;9.75;4.15;;;;;;;;;;4876241;29;20049;-62
2022/11/05 10:30:50;;;;;;;5.22;4.22;;;;;;;;;;4876295;29;20404;-62
2022/11/05 10:33:23;;;;;;;6.03;4.32;;;;;;;;;;4875405;29;20507;-62
2022/11/05 10:35:51;;;;;;;8.05;5.03;;;;;;;;;;4875594;29;20520;-61
2022/11/05 10:38:18;;;;;;;5.82;3.50;;;;;;;;;;4860765;29;20495;-63
2022/11/05 10:41:08;;;;;;;5.90;3.90;;;;;;;;;;4876161;29;20099;-62
2022/11/05 10:43:57;;;;;;;6.63;4.40;;;;;;;;;;4859860;29;20503;-62
2022/11/05 10:46:37;;;;;;;5.28;3.70;;;;;;;;;;4860655;29;20049;-62
2022/11/05 10:49:24;;;;;;;8.48;4.55;;;;;;;;;;4861751;29;20073;-61
2022/11/05 10:51:54;;;;;;;8.32;5.03;;;;;;;;;;4875425;29;20053;-62
2022/11/05 10:54:21;;;;;;;7.05;4.45;;;;;;;;;;4861642;29;20052;-62
2022/11/05 10:56:48;;;;;;;8.23;3.83;;;;;;;;;;4861447;29;20053;-61
2022/11/05 10:59:22;;;;;;;10.00;4.45;;;;;;;;;;4861594;29;20045;-62
2022/11/05 11:01:56;;;;;;;5.32;3.47;;;;;;;;;;4860915;29;20065;-62
2022/11/05 11:04:24;;;;;;;11.00;3.83;;;;;;;;;;4875658;29;20133;-62
2022/11/05 11:06:51;;;;;;;5.53;3.53;;;;;;;;;;4860369;29;20113;-62
2022/11/05 11:09:38;;;;;;;6.43;3.80;;;;;;;;;;4861538;29;20098;-62
2022/11/05 11:12:06;;;;;;;7.85;3.95;;;;;;;;;;4859574;29;20082;-62
2022/11/05 11:14:33;;;;;;;6.35;4.28;;;;;;;;;;4861642;29;20049;-62
2022/11/05 11:17:32;;;;;;;6.60;4.28;;;;;;;;;;4861415;29;20050;-62
2022/11/05 11:20:18;;;;;;;6.88;3.97;;;;;;;;;;4869854;29;20058;-62
2022/11/05 11:23:03;;;;;;;6.78;3.83;;;;;;;;;;4860262;29;20495;-62
2022/11/05 11:25:48;;;;;;;11.52;4.07;;;;;;;;;;4860818;29;20057;-62
2022/11/05 11:28:17;;;;;;;7.53;3.75;;;;;;;;;;4860967;29;20074;-62
2022/11/05 11:30:49;;;;;;;6.90;3.85;;;;;;;;;;4860965;29;20116;-62
2022/11/05 11:33:19;;;;;;;7.65;3.83;;;;;;;;;;4860242;29;20049;-62
2022/11/05 11:35:45;;;;;;;8.10;3.95;;;;;;;;;;4860774;29;20049;-62
2022/11/05 11:38:13;;;;;;;7.45;3.95;;;;;;;;;;4860837;29;20189;-63
2022/11/05 11:40:39;;;;;;;5.95;4.00;;;;;;;;;;4859410;29;20049;-61
2022/11/05 11:43:24;;;;;;;6.05;3.53;;;;;;;;;;4859976;29;20077;-61
2022/11/05 11:45:52;;;;;;;5.88;4.05;;;;;;;;;;4860781;29;20068;-64
2022/11/05 11:48:22;;;;;;;7.93;3.83;;;;;;;;;;4859553;29;20049;-63
2022/11/05 11:50:48;;;;;;;6.45;4.00;;;;;;;;;;4860932;29;20472;-62
2022/11/05 11:53:34;;;;;;;8.23;4.03;;;;;;;;;;4860438;29;20109;-64
2022/11/05 11:56:19;;;;;;;6.53;4.60;;;;;;;;;;4860577;29;20053;-62
2022/11/05 11:58:50;;;;;;;7.93;4.30;;;;;;;;;;4859106;29;20077;-62
2022/11/05 12:01:22;;;;;;;6.95;4.10;;;;;;;;;;4860337;29;20053;-62
2022/11/05 12:03:50;;;;;;;8.30;5.22;;;;;;;;;;4874196;29;20061;-62
2022/11/05 12:06:16;;;;;;;12.80;5.28;;;;;;;;;;4859361;29;20061;-62
2022/11/05 12:09:06;;;;;;;7.25;4.97;;;;;;;;;;4860165;29;20086;-63
2022/11/05 12:11:46;;;;;;;12.30;5.90;;;;;;;;;;4860012;29;20049;-62
2022/11/05 12:14:15;;;;;;;13.45;5.85;;;;;;;;;;4859030;29;20049;-63
2022/11/05 12:16:49;;;;;;;12.60;5.50;;;;;;;;;;4874400;29;20085;-63
2022/11/05 12:19:21;;;;;;;8.73;5.80;;;;;;;;;;4860218;29;20106;-63
2022/11/05 12:21:53;;;;;;;7.80;5.35;;;;;;;;;;4859361;29;20114;-63
2022/11/05 12:24:38;;;;;;;8.25;5.35;;;;;;;;;;4858734;29;20037;-63
2022/11/05 12:27:23;;;;;;;10.20;5.45;;;;;;;;;;4874257;29;20097;-64
2022/11/05 12:30:01;;;;;;;8.25;6.13;;;;;;;;;;4860024;29;20110;-63
2022/11/05 12:32:46;;;;;;;13.20;6.65;;;;;;;;;;4859553;29;20041;-62
2022/11/05 12:35:31;;;;;;;15.73;8.18;;;;;;;;;;4860027;29;20120;-62
2022/11/05 12:38:27;;;;;;;12.57;8.93;;;;;;;;;;4874077;29;20068;-62
2022/11/05 12:41:08;;;;;;;13.30;9.40;;;;;;;;;;4873875;29;20466;-62
2022/11/05 12:43:35;;;;;;;11.65;8.70;;;;;;;;;;4857940;29;20081;-62
2022/11/05 12:46:07;;;;;;;11.75;8.00;;;;;;;;;;4859809;29;20077;-62
2022/11/05 12:48:58;;;;;;;11.23;8.23;;;;;;;;;;4859640;29;20050;-62
2022/11/05 12:51:44;;;;;;;11.48;7.82;;;;;;;;;;4873887;29;20045;-62
2022/11/05 12:54:16;;;;;;;10.45;8.25;;;;;;;;;;4873973;29;20088;-64
2022/11/05 12:56:47;;;;;;;11.77;8.85;;;;;;;;;;4859576;29;20587;-64
2022/11/05 12:59:20;;;;;;;12.40;7.63;;;;;;;;;;4860902;29;20046;-62
2022/11/05 13:01:48;;;;;;;13.10;8.43;;;;;;;;;;4861997;29;20110;-63
2022/11/05 13:04:35;;;;;;;12.32;8.15;;;;;;;;;;4864102;29;20104;-63
2022/11/05 13:07:04;;;;;;;11.98;7.85;;;;;;;;;;4862300;29;20065;-63
2022/11/05 13:09:37;;;;;;;14.30;8.60;;;;;;;;;;4877564;29;20499;-63
2022/11/05 13:12:06;;;;;;;9.63;7.90;;;;;;;;;;4862849;29;20088;-63
2022/11/05 13:14:53;;;;;;;11.70;9.00;;;;;;;;;;4863383;29;20323;-63
2022/11/05 13:17:22;;;;;;;12.27;8.10;;;;;;;;;;4877671;29;20109;-63
2022/11/05 13:19:48;;;;;;;12.55;8.45;;;;;;;;;;4877656;29;20115;-63
2022/11/05 13:22:25;;;;;;;10.88;8.43;;;;;;;;;;4862594;29;20061;-63
2022/11/05 13:24:54;;;;;;;12.95;9.52;;;;;;;;;;4863965;29;20507;-63
2022/11/05 13:27:26;;;;;;;11.75;8.57;;;;;;;;;;4863424;29;20118;-63
2022/11/05 13:29:56;;;;;;;12.13;8.80;;;;;;;;;;4863211;29;20084;-63
2022/11/05 13:32:23;;;;;;;13.88;9.45;;;;;;;;;;4863047;29;20057;-63
2022/11/05 13:34:56;;;;;;;12.68;10.52;;;;;;;;;;4863869;29;20466;-64
2022/11/05 13:40:15;;;;;;;12.75;10.05;;;;;;;;;;4863419;29;20288;-63
2022/11/05 13:43:01;;;;;;;15.07;10.70;;;;;;;;;;4862390;29;20081;-63
2022/11/05 13:45:46;;;;;;;14.07;9.60;;;;;;;;;;4863016;29;20154;-63
2022/11/05 13:48:31;;;;;;;15.20;9.52;;;;;;;;;;4862730;29;20494;-63
2022/11/05 13:51:16;;;;;;;12.82;8.65;;;;;;;;;;4862955;29;20510;-63
2022/11/05 13:53:45;;;;;;;13.43;8.70;;;;;;;;;;4862215;29;20101;-63
2022/11/05 13:56:31;;;;;;;11.70;8.55;;;;;;;;;;4862843;29;20053;-63
2022/11/05 13:59:04;;;;;;;12.25;8.30;;;;;;;;;;4862706;29;20053;-63
2022/11/05 14:01:36;;;;;;;13.20;8.20;;;;;;;;;;4876625;29;20089;-63
2022/11/05 14:04:03;;;;;;;10.68;7.30;;;;;;;;;;4862596;29;20769;-63
2022/11/05 14:06:33;;;;;;;13.45;7.88;;;;;;;;;;4862872;29;20508;-63
2022/11/05 14:09:06;;;;;;;13.32;6.95;;;;;;;;;;4877451;29;20459;-63
2022/11/05 14:11:34;;;;;;;9.90;6.70;;;;;;;;;;4861255;29;20498;-66
2022/11/05 14:14:03;;;;;;;10.80;7.20;;;;;;;;;;4876144;29;20098;-63
2022/11/05 14:16:50;;;;;;;15.88;7.25;;;;;;;;;;4876808;29;20111;-63
2022/11/05 14:19:16;;;;;;;11.48;6.82;;;;;;;;;;4862316;29;20077;-63
2022/11/05 14:21:46;;;;;;;10.63;6.75;;;;;;;;;;4876158;29;20057;-62
2022/11/05 14:24:22;;;;;;;11.45;6.22;;;;;;;;;;4862262;29;20046;-62
2022/11/05 14:27:00;;;;;;;14.00;6.75;;;;;;;;;;4862217;29;20046;-62
2022/11/05 14:29:37;;;;;;;10.57;7.25;;;;;;;;;;4862278;29;20041;-62
2022/11/05 14:32:24;;;;;;;10.98;7.10;;;;;;;;;;4860877;29;20050;-62
2022/11/05 14:35:02;;;;;;;10.00;6.53;;;;;;;;;;4861380;29;20771;-62
2022/11/05 14:37:29;;;;;;;8.98;6.32;;;;;;;;;;4862013;29;20042;-63
2022/11/05 14:39:56;;;;;;;11.50;7.10;;;;;;;;;;4861954;29;20057;-62
2022/11/05 14:42:27;;;;;;;9.85;6.53;;;;;;;;;;4861120;29;20053;-65
2022/11/05 14:45:02;;;;;;;8.82;6.60;;;;;;;;;;4861925;29;20118;-62
2022/11/05 14:47:30;;;;;;;11.57;6.40;;;;;;;;;;4861738;29;20452;-62
2022/11/05 14:49:59;;;;;;;10.02;5.85;;;;;;;;;;4861773;29;20045;-62
2022/11/05 14:52:26;;;;;;;9.90;5.72;;;;;;;;;;4861053;29;20090;-62
2022/11/05 14:54:53;;;;;;;10.25;5.22;;;;;;;;;;4861733;29;20391;-62
2022/11/05 14:57:38;;;;;;;8.73;5.80;;;;;;;;;;4875774;29;20057;-62
2022/11/05 15:00:05;;;;;;;10.07;5.43;;;;;;;;;;4861446;29;20041;-62
2022/11/05 15:02:34;;;;;;;6.55;5.30;;;;;;;;;;4859407;29;20053;-62
2022/11/05 15:05:32;;;;;;;11.88;5.85;;;;;;;;;;4860284;29;20042;-62
2022/11/05 15:07:59;;;;;;;10.85;5.82;;;;;;;;;;4859923;29;20063;-62
2022/11/05 15:10:28;;;;;;;11.48;5.18;;;;;;;;;;4861328;29;20042;-62
2022/11/05 15:13:00;;;;;;;10.95;5.15;;;;;;;;;;4861161;29;20052;-62
2022/11/05 15:15:28;;;;;;;9.82;5.57;;;;;;;;;;4861340;29;20053;-62
2022/11/05 15:18:00;;;;;;;10.07;5.10;;;;;;;;;;4861125;29;20038;-62
2022/11/05 15:20:35;;;;;;;9.48;5.80;;;;;;;;;;4861141;29;20070;-62
2022/11/05 15:23:08;;;;;;;9.45;5.82;;;;;;;;;;4874692;29;20113;-62
2022/11/05 15:25:49;;;;;;;7.68;5.10;;;;;;;;;;4875151;29;20070;-62
2022/11/05 15:28:30;;;;;;;9.18;4.35;;;;;;;;;;4861087;29;20514;-62
2022/11/05 15:30:59;;;;;;;7.93;4.45;;;;;;;;;;4860937;29;20046;-62
2022/11/05 15:33:25;;;;;;;6.05;4.50;;;;;;;;;;4860204;29;20049;-62
2022/11/05 15:35:52;;;;;;;8.70;5.70;;;;;;;;;;4861321;29;20053;-62
2022/11/05 15:38:26;;;;;;;7.43;5.43;;;;;;;;;;4860936;29;20053;-62
2022/11/05 15:40:57;;;;;;;9.00;5.50;;;;;;;;;;4860894;29;20392;-62